Time;durP1;ratioP1;P1;durP2;ratioP2;P2;SDS_P1;SDS_P2;PMS_P1;PMS_P2;Temp;Humidity;BMP_temperature;BMP_pressure;BME280_temperature;BME280_humidity;BME280_pressure;Samples;Min_cycle;Max_cycle;Signal;HPM_P1;HPM_P2
2022/07/18 00:02:11;;;;;;;6.72;2.60;;;;;;;17.83;87.85;102323.44;5216316;28;20026;-73
2022/07/18 00:04:42;;;;;;;9.70;3.07;;;;;;;17.74;89.07;102317.97;5215825;28;20041;-73
2022/07/18 00:07:14;;;;;;;7.30;2.40;;;;;;;17.58;91.33;102312.41;5215223;28;20021;-73
2022/07/18 00:09:45;;;;;;;11.25;3.10;;;;;;;17.61;90.90;102314.75;5216016;28;20036;-73
2022/07/18 00:12:17;;;;;;;9.25;3.25;;;;;;;17.63;90.65;102318.13;5215745;28;20049;-73
2022/07/18 00:14:48;;;;;;;7.95;2.78;;;;;;;17.58;89.99;102312.41;5214635;28;20025;-73
2022/07/18 00:17:19;;;;;;;7.22;3.85;;;;;;;17.56;89.87;102314.34;5216613;28;20040;-73
2022/07/18 00:19:51;;;;;;;7.88;3.15;;;;;;;17.55;89.09;102315.34;5215095;28;20026;-73
2022/07/18 00:22:22;;;;;;;8.10;3.05;;;;;;;17.47;90.54;102307.25;5215554;28;20407;-73
2022/07/18 00:24:54;;;;;;;7.53;2.78;;;;;;;17.43;90.39;102303.22;5215222;28;20512;-74
2022/07/18 00:27:25;;;;;;;7.35;2.80;;;;;;;17.39;92.10;102307.94;5212449;28;20045;-73
2022/07/18 00:29:56;;;;;;;9.00;3.08;;;;;;;17.41;90.63;102298.03;5216320;28;20030;-73
2022/07/18 00:32:28;;;;;;;6.30;2.42;;;;;;;17.38;93.25;102298.28;5215792;28;20427;-73
2022/07/18 00:34:59;;;;;;;7.05;2.65;;;;;;;17.41;93.36;102292.72;5215615;28;20018;-73
2022/07/18 00:37:30;;;;;;;7.22;2.65;;;;;;;17.38;92.80;102293.00;5215895;28;20064;-73
2022/07/18 00:40:02;;;;;;;8.20;2.60;;;;;;;17.30;94.54;102282.28;5213200;28;20045;-73
2022/07/18 00:42:33;;;;;;;5.90;3.00;;;;;;;17.23;97.17;102284.63;5215540;28;20053;-73
2022/07/18 00:45:05;;;;;;;8.35;3.30;;;;;;;17.23;95.63;102284.63;5216523;28;20029;-73
2022/07/18 00:47:37;;;;;;;10.02;3.33;;;;;;;17.23;95.02;102281.16;5214202;28;20055;-73
2022/07/18 00:50:08;;;;;;;6.57;2.88;;;;;;;17.16;94.54;102278.25;5215973;28;20145;-73
2022/07/18 00:52:40;;;;;;;7.30;3.03;;;;;;;17.15;96.64;102281.84;5215802;28;20022;-73
2022/07/18 00:55:11;;;;;;;8.18;2.95;;;;;;;17.15;95.74;102278.34;5204701;28;20057;-73
2022/07/18 00:57:43;;;;;;;6.03;2.85;;;;;;;17.12;96.31;102282.13;5214161;28;20033;-73
2022/07/18 01:03:05;;;;;;;4.43;2.75;;;;;;;16.97;97.02;102270.25;5215127;28;20160;-73
2022/07/18 01:05:36;;;;;;;6.70;2.97;;;;;;;16.98;97.45;102271.94;5213954;28;20310;-73
2022/07/18 01:08:07;;;;;;;7.38;3.20;;;;;;;17.05;97.41;102274.84;5214069;28;20065;-73
2022/07/18 01:10:39;;;;;;;4.18;2.97;;;;;;;16.95;97.43;102262.44;5214681;28;20037;-73
2022/07/18 01:13:10;;;;;;;5.53;3.33;;;;;;;16.95;97.03;102266.91;5213448;28;20151;-73
2022/07/18 01:15:41;;;;;;;8.75;3.33;;;;;;;16.88;96.85;102269.25;5213303;28;20045;-73
2022/07/18 01:18:13;;;;;;;9.57;3.70;;;;;;;16.97;96.17;102262.31;5214353;28;20471;-73
2022/07/18 01:20:44;;;;;;;11.15;4.30;;;;;;;16.94;93.37;102258.13;5213492;28;20130;-73
2022/07/18 01:23:15;;;;;;;7.05;4.25;;;;;;;16.87;92.19;102249.06;5212675;28;20026;-73
2022/07/18 01:25:46;;;;;;;6.22;3.80;;;;;;;16.92;91.38;102265.38;5214460;28;20037;-73
2022/07/18 01:28:18;;;;;;;9.35;4.22;;;;;;;16.75;93.94;102264.25;5214551;28;20017;-73
2022/07/18 01:30:49;;;;;;;6.50;3.90;;;;;;;16.82;91.73;102261.88;5213634;28;20042;-74
2022/07/18 01:33:20;;;;;;;7.95;4.00;;;;;;;16.80;92.42;102258.53;5204758;28;20037;-73
2022/07/18 01:35:52;;;;;;;8.13;4.38;;;;;;;16.73;93.16;102255.59;5213151;28;20325;-74
2022/07/18 01:38:23;;;;;;;7.28;4.40;;;;;;;16.76;91.95;102259.78;5214233;28;20079;-73
2022/07/18 01:40:55;;;;;;;8.00;4.25;;;;;;;16.73;92.17;102260.00;5204349;28;20069;-73
2022/07/18 01:43:27;;;;;;;6.68;4.03;;;;;;;16.70;93.00;102268.22;5213413;28;20369;-73
2022/07/18 01:45:58;;;;;;;5.95;3.60;;;;;;;16.58;92.56;102248.13;5211907;28;20026;-74
2022/07/18 01:48:30;;;;;;;8.57;3.80;;;;;;;16.69;93.04;102263.91;5214672;28;20533;-73
2022/07/18 01:51:01;;;;;;;6.28;3.85;;;;;;;16.50;93.76;102254.94;5213494;28;20030;-73
2022/07/18 01:53:32;;;;;;;6.95;3.47;;;;;;;16.51;94.52;102261.88;5213368;28;20034;-73
2022/07/18 01:56:05;;;;;;;4.68;3.20;;;;;;;16.57;94.16;102265.00;5213870;28;20024;-73
2022/07/18 01:58:36;;;;;;;5.65;3.40;;;;;;;16.50;95.19;102254.94;5213979;28;20061;-73
2022/07/18 02:01:07;;;;;;;4.82;3.00;;;;;;;16.52;95.68;102260.09;5198516;28;20131;-73
2022/07/18 02:03:39;;;;;;;6.32;3.42;;;;;;;16.51;94.99;102264.53;5212195;28;20421;-72
2022/07/18 02:06:10;;;;;;;4.60;3.00;;;;;;;16.52;93.81;102252.16;5212662;28;20037;-73
2022/07/18 02:08:41;;;;;;;5.30;3.42;;;;;;;16.46;96.35;102250.06;5212933;28;20049;-73
2022/07/18 02:11:12;;;;;;;5.53;3.35;;;;;;;16.38;99.10;102258.66;5213217;28;20459;-73
2022/07/18 02:13:44;;;;;;;6.40;3.88;;;;;;;16.37;97.53;102256.16;5204367;28;20423;-73
2022/07/18 02:16:15;;;;;;;5.18;3.85;;;;;;;16.29;96.50;102239.13;5215242;28;20034;-73
2022/07/18 02:18:46;;;;;;;7.40;4.28;;;;;;;16.30;94.42;102239.97;5211415;28;20030;-73
2022/07/18 02:21:18;;;;;;;6.70;3.80;;;;;;;16.22;93.04;102226.59;5213190;28;20045;-73
2022/07/18 02:23:50;;;;;;;7.25;4.32;;;;;;;16.24;93.36;102233.41;5214184;28;20446;-73
2022/07/18 02:26:22;;;;;;;7.15;3.75;;;;;;;16.24;94.00;102240.50;5212361;28;20026;-73
2022/07/18 02:28:53;;;;;;;10.52;4.22;;;;;;;16.23;93.44;102231.72;5211454;28;20032;-73
2022/07/18 02:31:24;;;;;;;6.70;4.20;;;;;;;16.25;93.39;102237.75;5213222;28;20505;-74
2022/07/18 02:33:55;;;;;;;6.43;4.43;;;;;;;16.24;93.71;102240.50;5214579;28;20026;-72
2022/07/18 02:36:27;;;;;;;6.53;3.95;;;;;;;16.19;94.05;102234.78;5209718;28;20030;-73
2022/07/18 02:38:58;;;;;;;6.72;4.68;;;;;;;16.14;94.40;102232.53;5213016;28;20034;-73
2022/07/18 02:41:29;;;;;;;8.77;4.50;;;;;;;16.02;95.76;102225.63;5212059;28;20049;-73
2022/07/18 02:44:01;;;;;;;7.55;4.57;;;;;;;16.05;97.56;102230.66;5236871;28;20135;-73
2022/07/18 02:46:32;;;;;;;8.38;4.55;;;;;;;16.00;97.59;102228.44;5211381;28;20518;-73
2022/07/18 02:49:03;;;;;;;6.72;4.35;;;;;;;16.00;96.68;102224.94;5213765;28;20026;-73
2022/07/18 02:51:35;;;;;;;7.47;4.57;;;;;;;16.03;95.97;102224.69;5212268;28;20160;-73
2022/07/18 02:54:06;;;;;;;9.43;4.72;;;;;;;16.06;95.37;102224.41;5212443;28;20029;-73
2022/07/18 02:56:37;;;;;;;7.55;4.25;;;;;;;16.00;95.72;102225.78;5213357;28;20037;-74
2022/07/18 02:59:09;;;;;;;8.18;4.45;;;;;;;16.10;95.36;102235.56;5212693;28;20029;-74
2022/07/18 03:01:40;;;;;;;8.20;4.00;;;;;;;15.93;96.29;102234.38;5211275;28;20060;-73
2022/07/18 03:04:12;;;;;;;6.35;4.30;;;;;;;15.88;97.21;102226.00;5212832;28;20025;-73
2022/07/18 03:06:44;;;;;;;5.88;4.10;;;;;;;15.87;97.25;102230.44;5212218;28;20113;-73
2022/07/18 03:09:16;;;;;;;8.18;4.20;;;;;;;15.88;97.14;102231.28;5211420;28;20053;-73
2022/07/18 03:11:47;;;;;;;6.83;4.23;;;;;;;15.81;98.05;102225.69;5212825;28;20331;-72
2022/07/18 03:14:19;;;;;;;5.47;3.67;;;;;;;15.85;97.99;102218.34;5211785;28;20116;-73
2022/07/18 03:16:50;;;;;;;4.82;3.53;;;;;;;15.75;99.53;102202.41;5211253;28;20041;-73
2022/07/18 03:19:22;;;;;;;7.55;4.03;;;;;;;15.73;100.00;102196.44;5213175;28;20464;-72
2022/07/18 03:21:53;;;;;;;6.72;4.30;;;;;;;15.73;100.00;102199.91;5212462;28;20034;-72
2022/07/18 03:24:24;;;;;;;7.57;4.03;;;;;;;15.70;99.49;102192.25;5211949;28;20442;-72
2022/07/18 03:26:56;;;;;;;8.20;4.45;;;;;;;15.70;99.96;102191.41;5212863;28;20042;-72
2022/07/18 03:29:27;;;;;;;5.00;3.70;;;;;;;15.67;99.46;102186.38;5212123;28;20430;-72
2022/07/18 03:31:58;;;;;;;6.28;4.38;;;;;;;15.63;100.00;102195.50;5212737;28;20022;-72
2022/07/18 03:34:30;;;;;;;5.78;3.97;;;;;;;15.67;100.00;102200.44;5211964;28;20289;-72
2022/07/18 03:37:01;;;;;;;6.35;4.35;;;;;;;15.56;100.00;102198.66;5212681;28;20022;-72
2022/07/18 03:39:32;;;;;;;7.15;4.10;;;;;;;15.57;100.00;102189.78;5212396;28;20040;-72
2022/07/18 03:42:04;;;;;;;6.40;4.40;;;;;;;15.54;100.00;102190.03;5210255;28;20054;-72
2022/07/18 03:44:35;;;;;;;5.80;4.22;;;;;;;15.44;100.00;102183.84;5213486;28;20164;-72
2022/07/18 03:47:07;;;;;;;7.97;4.63;;;;;;;15.51;100.00;102195.56;5211547;28;20026;-73
2022/07/18 03:49:38;;;;;;;13.50;4.32;;;;;;;15.43;100.00;102199.84;5214514;28;20034;-72
2022/07/18 03:52:09;;;;;;;10.85;4.10;;;;;;;15.42;100.00;102198.13;5216550;28;20014;-72
2022/07/18 03:54:40;;;;;;;6.82;4.68;;;;;;;15.40;100.00;102194.81;5215721;28;20037;-73
2022/07/18 03:57:12;;;;;;;7.90;4.15;;;;;;;15.44;100.00;102189.13;5216109;28;20669;-73
2022/07/18 03:59:43;;;;;;;9.45;4.30;;;;;;;15.49;100.00;102191.38;5214973;28;20513;-73
2022/07/18 04:02:14;;;;;;;11.57;4.50;;;;;;;15.49;100.00;102196.66;5210219;28;20552;-72
2022/07/18 04:04:45;;;;;;;7.63;3.85;;;;;;;15.47;100.00;102188.88;5215140;28;20037;-72
2022/07/18 04:07:17;;;;;;;7.95;3.85;;;;;;;15.48;100.00;102187.06;5201151;28;20059;-72
2022/07/18 04:09:48;;;;;;;9.00;4.38;;;;;;;15.50;100.00;102193.06;5204567;28;20046;-72
2022/07/18 04:12:20;;;;;;;9.55;3.95;;;;;;;15.56;100.00;102189.91;5216050;28;20056;-72
2022/07/18 04:14:51;;;;;;;7.20;4.35;;;;;;;15.62;100.00;102189.38;5214441;28;20514;-73
2022/07/18 04:17:22;;;;;;;8.10;4.00;;;;;;;15.56;100.00;102187.25;5214888;28;20455;-73
2022/07/18 04:19:54;;;;;;;6.80;4.38;;;;;;;15.58;100.00;102185.34;5217036;28;20033;-72
2022/07/18 04:22:25;;;;;;;12.43;4.40;;;;;;;15.66;100.00;102172.34;5216401;28;20018;-72
2022/07/18 04:24:56;;;;;;;7.18;4.20;;;;;;;15.58;100.00;102170.31;5214813;28;20340;-72
2022/07/18 04:27:27;;;;;;;6.03;4.20;;;;;;;15.64;100.00;102168.13;5215691;28;20104;-73
2022/07/18 04:29:59;;;;;;;6.97;4.18;;;;;;;15.67;100.00;102171.38;5216481;28;20025;-73
2022/07/18 04:32:30;;;;;;;7.25;4.18;;;;;;;15.70;100.00;102168.47;5213386;28;20048;-72
2022/07/18 04:35:01;;;;;;;7.15;4.25;;;;;;;15.76;100.00;102162.66;5216920;28;20529;-73
2022/07/18 04:37:33;;;;;;;8.82;4.65;;;;;;;15.81;100.00;102163.09;5214069;28;20690;-72
2022/07/18 04:40:06;;;;;;;5.03;3.88;;;;;;;15.79;100.00;102170.31;5216164;28;20037;-73
2022/07/18 04:42:38;;;;;;;5.88;4.07;;;;;;;15.86;100.00;102153.94;5214486;28;20145;-73
2022/07/18 04:45:10;;;;;;;7.13;3.80;;;;;;;15.90;100.00;102161.47;5216264;28;20076;-72
2022/07/18 04:47:41;;;;;;;6.97;4.13;;;;;;;15.98;100.00;102161.63;5237083;28;20034;-73
2022/07/18 04:50:12;;;;;;;7.28;4.45;;;;;;;15.98;100.00;102158.16;5215778;28;20029;-72
2022/07/18 04:52:46;;;;;;;7.95;4.18;;;;;;;16.01;100.00;102163.19;5215949;28;20025;-74
2022/07/18 04:55:20;;;;;;;6.78;4.53;;;;;;;16.03;100.00;102159.44;5212862;28;20026;-73
2022/07/18 04:57:52;;;;;;;7.80;4.18;;;;;;;16.05;100.00;102168.06;5211815;28;20056;-74
2022/07/18 05:00:25;;;;;;;7.53;3.90;;;;;;;16.18;100.00;102159.91;5213097;28;20026;-74
2022/07/18 05:02:57;;;;;;;;;;;;;;;16.76;97.97;102161.84;5216066;28;20057;-74
2022/07/18 05:05:28;;;;;;;8.27;4.20;;;;;;;16.34;100.00;102161.19;5214218;28;19960;-74
2022/07/18 05:08:00;;;;;;;7.43;4.55;;;;;;;16.50;96.68;102166.78;5214833;28;20062;-74
2022/07/18 05:10:31;;;;;;;5.95;4.07;;;;;;;16.58;93.98;102152.88;5214894;28;20937;-74
2022/07/18 05:13:02;;;;;;;7.90;4.72;;;;;;;16.65;92.74;102161.94;5214578;28;20399;-74
2022/07/18 05:15:34;;;;;;;9.48;4.30;;;;;;;16.72;92.16;102152.50;5214489;28;20029;-73
2022/07/18 05:18:05;;;;;;;7.97;4.45;;;;;;;16.82;90.32;102171.91;5212850;28;20059;-73
2022/07/18 05:20:36;;;;;;;10.68;4.05;;;;;;;16.86;89.96;102162.69;5214632;28;20030;-73
2022/07/18 05:23:08;;;;;;;9.27;3.80;;;;;;;16.93;87.38;102171.75;5214750;28;20075;-74
2022/07/18 05:25:40;;;;;;;8.02;4.20;;;;;;;16.96;88.09;102175.91;5213456;28;20395;-73
2022/07/18 05:28:11;;;;;;;10.50;4.57;;;;;;;17.01;88.99;102152.53;5213489;28;20030;-73
2022/07/18 05:30:42;;;;;;;8.00;4.50;;;;;;;17.11;87.34;102163.94;5214941;28;20034;-73
2022/07/18 05:33:13;;;;;;;10.80;4.40;;;;;;;17.20;87.21;102167.56;5213608;28;20025;-73
2022/07/18 05:35:45;;;;;;;10.35;4.38;;;;;;;17.30;85.99;102164.88;5200440;28;20033;-73
2022/07/18 05:38:16;;;;;;;7.88;4.15;;;;;;;17.37;85.40;102168.66;5212128;28;20432;-73
2022/07/18 05:40:50;;;;;;;9.10;4.38;;;;;;;17.37;84.28;102172.13;5213289;28;20088;-74
2022/07/18 05:43:21;;;;;;;13.00;4.50;;;;;;;17.52;82.75;102170.69;5214629;28;20040;-73
2022/07/18 05:45:53;;;;;;;12.95;3.80;;;;;;;17.54;83.62;102175.00;5213279;28;20021;-73
2022/07/18 05:48:24;;;;;;;10.23;4.68;;;;;;;17.78;81.19;102166.63;5213523;28;20669;-74
2022/07/18 05:50:55;;;;;;;11.40;4.25;;;;;;;17.80;81.59;102170.78;5213789;28;20026;-73
2022/07/18 05:53:26;;;;;;;11.73;4.15;;;;;;;17.96;79.27;102165.72;5213724;28;20582;-73
2022/07/18 05:55:58;;;;;;;12.55;4.25;;;;;;;18.09;75.87;102157.41;5213638;28;20037;-73
2022/07/18 05:58:29;;;;;;;9.77;4.55;;;;;;;18.39;68.72;102163.38;5211319;28;20120;-73
2022/07/18 06:01:01;;;;;;;10.50;4.47;;;;;;;18.53;70.44;102173.50;5214723;28;20025;-73
2022/07/18 06:03:32;;;;;;;10.00;4.93;;;;;;;18.66;66.04;102160.69;5211423;28;20045;-73
2022/07/18 06:06:04;;;;;;;12.85;5.05;;;;;;;18.85;65.60;102169.50;5212963;28;20037;-73
2022/07/18 06:08:35;;;;;;;13.07;4.88;;;;;;;18.89;66.49;102165.56;5214001;28;20048;-73
2022/07/18 06:11:08;;;;;;;6.85;4.35;;;;;;;18.98;64.75;102169.13;5210918;28;20029;-74
2022/07/18 06:13:41;;;;;;;11.50;4.65;;;;;;;19.12;65.15;102166.75;5214406;28;20029;-74
2022/07/18 06:16:12;;;;;;;8.68;4.80;;;;;;;19.33;63.63;102173.56;5211754;28;20030;-73
2022/07/18 06:18:44;;;;;;;13.05;5.20;;;;;;;19.50;63.67;102167.34;5207932;28;20030;-73
2022/07/18 06:21:15;;;;;;;12.57;4.45;;;;;;;19.63;61.50;102159.84;5212513;28;20475;-73
2022/07/18 06:23:46;;;;;;;10.40;5.43;;;;;;;19.84;60.57;102151.47;5213377;28;20133;-73
2022/07/18 06:26:18;;;;;;;11.68;4.35;;;;;;;20.01;60.50;102152.38;5213387;28;20048;-74
2022/07/18 06:28:49;;;;;;;10.77;4.27;;;;;;;20.15;57.62;102146.44;5212620;28;20542;-73
2022/07/18 06:31:20;;;;;;;7.88;4.68;;;;;;;20.38;59.58;102144.03;5212940;28;20105;-73
2022/07/18 06:33:52;;;;;;;12.52;4.25;;;;;;;20.32;59.70;102146.50;5211375;28;20029;-73
2022/07/18 06:36:23;;;;;;;16.90;4.63;;;;;;;20.65;58.57;102134.94;5211712;28;20034;-73
2022/07/18 06:38:55;;;;;;;6.53;3.97;;;;;;;20.62;58.84;102132.59;5210297;28;20029;-74
2022/07/18 06:41:26;;;;;;;10.57;4.00;;;;;;;20.77;58.74;102138.09;5213625;28;20396;-74
2022/07/18 06:43:57;;;;;;;8.67;4.20;;;;;;;21.01;55.31;102134.59;5211242;28;20239;-74
2022/07/18 06:46:29;;;;;;;9.45;3.72;;;;;;;21.19;53.61;102131.75;5212110;28;20045;-74
2022/07/18 06:49:00;;;;;;;11.87;4.60;;;;;;;21.33;53.26;102124.94;5213566;28;20032;-74
2022/07/18 06:51:31;;;;;;;8.90;3.50;;;;;;;21.48;54.85;102133.06;5209867;28;20398;-73
2022/07/18 06:54:03;;;;;;;10.20;4.00;;;;;;;21.52;52.35;102126.41;5213317;28;20030;-74
2022/07/18 06:56:34;;;;;;;9.87;3.30;;;;;;;21.86;50.34;102126.13;5209550;28;20029;-74
2022/07/18 06:59:05;;;;;;;13.57;4.23;;;;;;;22.01;49.10;102129.72;5210311;28;20109;-74
2022/07/18 07:01:37;;;;;;;7.50;3.30;;;;;;;22.03;50.11;102129.53;5209839;28;20030;-74
2022/07/18 07:04:08;;;;;;;8.10;2.77;;;;;;;22.41;51.08;102124.34;5211405;28;20604;-74
2022/07/18 07:06:39;;;;;;;13.30;3.90;;;;;;;22.55;47.53;102128.94;5209971;28;20454;-74
2022/07/18 07:09:10;;;;;;;9.90;3.30;;;;;;;22.74;45.38;102130.28;5212410;28;20036;-74
2022/07/18 07:11:42;;;;;;;11.80;3.40;;;;;;;22.82;45.90;102132.88;5210429;28;20088;-74
2022/07/18 07:14:13;;;;;;;11.23;3.27;;;;;;;23.07;45.30;102141.56;5209633;28;20029;-75
2022/07/18 07:16:44;;;;;;;10.90;3.13;;;;;;;23.21;43.98;102140.75;5209887;28;20032;-76
2022/07/18 07:19:16;;;;;;;9.20;3.23;;;;;;;23.41;44.37;102140.22;5191453;28;20083;-76
2022/07/18 07:21:47;;;;;;;7.63;2.77;;;;;;;23.48;43.52;102147.31;5212777;28;20041;-75
2022/07/18 07:24:18;;;;;;;8.77;2.70;;;;;;;23.67;42.90;102140.63;5211714;28;20026;-75
2022/07/18 07:26:50;;;;;;;5.53;2.77;;;;;;;23.91;42.20;102144.84;5214574;28;20057;-75
2022/07/18 07:29:21;;;;;;;5.90;2.57;;;;;;;24.01;41.36;102141.88;5204936;28;20391;-73
2022/07/18 07:31:53;;;;;;;6.70;2.60;;;;;;;24.20;40.59;102133.25;5204008;28;20030;-73
2022/07/18 07:34:24;;;;;;;9.27;2.60;;;;;;;24.33;41.47;102140.59;5203134;28;20026;-73
2022/07/18 07:36:55;;;;;;;10.17;2.37;;;;;;;24.59;40.25;102137.41;5201079;28;20045;-73
2022/07/18 07:39:27;;;;;;;8.70;2.43;;;;;;;24.83;39.60;102140.72;5203745;28;20030;-74
2022/07/18 07:41:58;;;;;;;7.57;2.67;;;;;;;24.93;38.19;102141.22;5204169;28;20045;-73
2022/07/18 07:44:29;;;;;;;8.77;2.03;;;;;;;25.01;38.00;102138.38;5201915;28;20120;-73
2022/07/18 07:47:00;;;;;;;10.33;2.03;;;;;;;25.15;37.61;102137.47;5204356;28;20477;-74
2022/07/18 07:49:33;;;;;;;6.93;2.37;;;;;;;25.24;38.04;102133.63;5202901;28;20056;-75
2022/07/18 07:52:05;;;;;;;6.93;2.00;;;;;;;25.31;36.33;102131.00;5201742;28;20030;-75
2022/07/18 07:54:36;;;;;;;16.60;2.03;;;;;;;25.58;35.84;102125.78;5201200;28;20034;-74
2022/07/18 07:57:07;;;;;;;5.40;1.70;;;;;;;25.67;35.01;102116.53;5202132;28;20040;-73
2022/07/18 07:59:39;;;;;;;6.20;1.90;;;;;;;25.87;35.32;102116.66;5202188;28;20061;-74
2022/07/18 08:02:10;;;;;;;5.33;1.73;;;;;;;26.02;34.95;102105.75;5200705;28;20045;-74
2022/07/18 08:04:42;;;;;;;6.57;2.30;;;;;;;26.23;36.02;102107.47;5203079;28;20114;-74
2022/07/18 08:07:13;;;;;;;4.88;2.13;;;;;;;26.35;35.41;102103.97;5191109;28;20460;-75
2022/07/18 08:09:45;;;;;;;6.73;2.03;;;;;;;26.37;34.22;102101.94;5203873;28;20034;-73
2022/07/18 08:12:16;;;;;;;5.47;2.10;;;;;;;26.46;33.88;102099.06;5202556;28;20040;-74
2022/07/18 08:14:49;;;;;;;7.07;1.93;;;;;;;26.64;33.18;102099.28;5202140;28;20029;-74
2022/07/18 08:17:20;;;;;;;5.25;1.88;;;;;;;26.75;33.16;102089.78;5201813;28;20057;-75
2022/07/18 08:19:52;;;;;;;4.37;1.80;;;;;;;26.84;32.89;102101.97;5202220;28;20045;-72
2022/07/18 08:22:23;;;;;;;6.67;1.37;;;;;;;26.87;33.41;102091.63;5207073;28;20475;-73
2022/07/18 08:24:54;;;;;;;3.67;1.70;;;;;;;27.06;33.36;102083.75;5203759;28;20112;-72
2022/07/18 08:27:26;;;;;;;7.73;2.13;;;;;;;27.29;33.46;102089.50;5203336;28;20457;-72
2022/07/18 08:29:57;;;;;;;15.40;2.70;;;;;;;27.38;33.28;102093.63;5205066;28;20112;-74
2022/07/18 08:32:28;;;;;;;11.53;3.20;;;;;;;27.48;33.22;102089.66;5226180;28;20018;-74
2022/07/18 08:35:00;;;;;;;5.43;1.80;;;;;;;27.42;33.42;102097.53;5208079;28;20384;-74
2022/07/18 08:37:31;;;;;;;8.90;1.87;;;;;;;27.57;33.37;102094.59;5211334;28;20122;-73
2022/07/18 08:40:03;;;;;;;7.10;1.92;;;;;;;27.83;33.68;102103.63;5209504;28;20442;-73
2022/07/18 08:42:35;;;;;;;8.00;2.00;;;;;;;27.76;33.35;102105.53;5211429;28;20049;-74
2022/07/18 08:45:07;;;;;;;6.85;1.92;;;;;;;27.90;33.42;102101.75;5209840;28;20029;-74
2022/07/18 08:47:39;;;;;;;8.82;2.25;;;;;;;28.16;34.70;102102.66;5212620;28;20030;-74
2022/07/18 08:50:10;;;;;;;5.87;2.00;;;;;;;28.30;33.72;102110.44;5214085;28;20026;-74
2022/07/18 08:52:43;;;;;;;9.83;1.90;;;;;;;28.40;34.37;102103.75;5202510;28;20131;-74
2022/07/18 08:55:15;;;;;;;6.40;1.85;;;;;;;28.51;33.64;102095.78;5201103;28;20044;-74
2022/07/18 08:57:46;;;;;;;4.55;2.25;;;;;;;28.66;33.04;102090.06;5201250;28;20059;-74
2022/07/18 09:00:22;;;;;;;8.83;2.53;;;;;;;28.86;32.50;102089.88;5211370;28;20506;-74
2022/07/18 09:03:02;;;;;;;7.45;1.70;;;;;;;28.70;32.19;102088.56;5214697;28;20054;-74
2022/07/18 09:05:33;;;;;;;9.77;2.22;;;;;;;28.70;33.29;102085.06;5213733;28;20037;-74
2022/07/18 09:08:19;;;;;;;7.90;2.47;;;;;;;29.23;33.52;102092.66;5212039;28;21271;-73
2022/07/18 09:10:55;;;;;;;6.22;2.00;;;;;;;29.13;31.63;102095.88;5215762;28;20827;-74
2022/07/18 09:13:33;;;;;;;9.10;2.25;;;;;;;29.23;32.47;102096.19;5211073;28;20141;-73
2022/07/18 09:16:10;;;;;;;7.18;2.10;;;;;;;29.19;32.96;102089.59;5213563;28;20470;-73
2022/07/18 09:18:47;;;;;;;5.78;2.00;;;;;;;29.45;31.57;102101.97;5199192;28;20157;-74
2022/07/18 09:21:21;;;;;;;8.98;2.17;;;;;;;29.61;31.05;102099.75;5213160;28;20391;-74
2022/07/18 09:23:54;;;;;;;12.55;2.10;;;;;;;29.68;31.68;102104.00;5213088;28;20030;-74
2022/07/18 09:26:43;;;;;;;16.23;1.90;;;;;;;30.11;32.31;102100.31;5213834;28;20499;-75
2022/07/18 09:29:16;;;;;;;13.07;2.38;;;;;;;29.95;30.94;102098.25;5208934;28;20033;-75
2022/07/18 09:31:51;;;;;;;5.85;1.70;;;;;;;30.19;30.81;102105.44;5210698;28;20722;-75
2022/07/18 09:34:37;;;;;;;7.47;2.10;;;;;;;30.39;30.78;102107.00;5211817;28;20144;-75
2022/07/18 09:37:11;;;;;;;3.78;1.50;;;;;;;30.46;29.51;102105.84;5209046;28;20029;-75
2022/07/18 09:39:43;;;;;;;10.45;1.88;;;;;;;30.41;30.17;102107.59;5210591;28;20076;-74
2022/07/18 09:42:16;;;;;;;4.77;1.60;;;;;;;30.37;29.89;102109.09;5209219;28;20042;-75
2022/07/18 09:45:06;;;;;;;6.05;1.70;;;;;;;30.73;30.79;102100.00;5226469;28;20583;-75
2022/07/18 09:48:11;;;;;;;4.55;1.98;;;;;;;31.05;31.50;102099.66;5208136;28;20062;-75
2022/07/18 09:50:50;;;;;;;6.10;2.08;;;;;;;30.73;30.92;102105.41;5161510;28;20325;-73
2022/07/18 09:53:37;;;;;;;7.35;2.05;;;;;;;31.04;30.76;102104.25;5205548;28;20064;-74
2022/07/18 09:56:13;;;;;;;5.15;1.90;;;;;;;30.71;29.85;102102.09;5207902;28;20091;-74
2022/07/18 09:58:56;;;;;;;2.28;1.55;;;;;;;31.34;30.33;102103.31;5197991;28;20050;-74
2022/07/18 10:01:28;;;;;;;;;;;;;;;31.91;31.08;102096.09;5208039;28;20026;-74
2022/07/18 10:04:00;;;;;;;5.97;2.20;;;;;;;31.44;30.12;102098.09;5205245;28;19923;-74
2022/07/18 10:06:31;;;;;;;3.90;1.58;;;;;;;31.23;29.40;102094.94;5207480;28;20438;-75
2022/07/18 10:09:03;;;;;;;4.22;1.67;;;;;;;31.36;30.45;102088.44;5210254;28;20033;-74
2022/07/18 10:11:34;;;;;;;5.18;1.70;;;;;;;31.78;31.07;102100.94;5207686;28;20030;-74
2022/07/18 10:14:06;;;;;;;4.67;1.90;;;;;;;31.81;29.43;102092.31;5208804;28;20018;-74
2022/07/18 10:16:38;;;;;;;5.53;2.10;;;;;;;31.73;29.71;102097.06;5210140;28;20037;-75
2022/07/18 10:19:11;;;;;;;5.65;1.75;;;;;;;31.92;30.60;102092.31;5198185;28;20029;-74
2022/07/18 10:21:48;;;;;;;4.28;1.70;;;;;;;32.25;29.23;102100.75;5208691;28;20029;-74
2022/07/18 10:24:20;;;;;;;4.95;1.60;;;;;;;32.18;27.77;102096.28;5197427;28;20026;-74
2022/07/18 10:27:12;;;;;;;4.95;1.90;;;;;;;32.40;29.14;102093.72;5211851;28;20049;-74
2022/07/18 10:30:10;;;;;;;7.13;1.85;;;;;;;32.50;29.33;102090.34;5212600;28;20088;-74
2022/07/18 10:32:42;;;;;;;6.35;1.67;;;;;;;32.09;28.88;102091.53;5212181;28;20418;-74
2022/07/18 10:35:15;;;;;;;5.78;1.70;;;;;;;32.22;28.45;102092.03;5198488;28;20038;-75
2022/07/18 10:37:47;;;;;;;7.10;1.85;;;;;;;32.49;28.84;102085.16;5213140;28;20044;-74
2022/07/18 10:40:29;;;;;;;3.47;1.93;;;;;;;32.78;27.62;102088.59;5213330;28;20029;-75
2022/07/18 10:43:45;;;;;;;4.70;1.70;;;;;;;32.88;28.40;102081.44;5209776;28;20899;-74
2022/07/18 10:46:17;;;;;;;4.63;1.65;;;;;;;32.70;26.84;102087.13;5196655;28;20041;-78
2022/07/18 10:48:49;;;;;;;3.83;1.85;;;;;;;32.80;25.53;102078.31;5209985;28;20037;-73
2022/07/18 10:51:28;;;;;;;7.05;1.70;;;;;;;32.96;26.12;102077.50;5206832;28;20030;-73
2022/07/18 10:54:04;;;;;;;4.22;1.50;;;;;;;33.15;26.66;102075.31;5231961;28;20025;-84
2022/07/18 10:56:35;;;;;;;5.05;1.35;;;;;;;33.01;25.21;102083.00;5204318;28;20400;-72
2022/07/18 10:59:17;;;;;;;;;;;;;;;33.79;26.23;102080.13;5204662;28;20250;-72
2022/07/18 11:01:51;;;;;;;6.10;1.67;;;;;;;33.30;24.25;102077.38;5189070;28;20036;-73
2022/07/18 11:04:27;;;;;;;4.30;1.58;;;;;;;33.15;24.34;102078.03;5199992;28;20124;-72
2022/07/18 11:07:09;;;;;;;3.08;1.30;;;;;;;33.24;23.58;102073.78;5198727;28;20378;-72
2022/07/18 11:09:42;;;;;;;2.95;1.50;;;;;;;33.04;23.54;102066.22;5200280;28;20192;-73
2022/07/18 11:12:19;;;;;;;5.93;1.50;;;;;;;33.15;23.40;102067.97;5201661;28;20014;-70
2022/07/18 11:15:12;;;;;;;4.15;1.50;;;;;;;33.54;23.36;102065.22;5198367;28;20044;-72
2022/07/18 11:17:55;;;;;;;;;;;;;;;34.10;23.87;102067.72;5200380;28;20026;-71
2022/07/18 11:20:39;;;;;;;2.50;1.45;;;;;;;33.64;24.47;102059.91;5199508;28;19921;-74
2022/07/18 11:23:24;;;;;;;2.90;1.58;;;;;;;33.69;24.12;102056.41;5201906;28;20026;-71
2022/07/18 11:25:58;;;;;;;4.78;1.88;;;;;;;33.58;24.50;102065.53;5203239;28;20273;-72
2022/07/18 11:28:29;;;;;;;4.47;1.85;;;;;;;33.64;24.67;102061.75;5202777;28;20137;-72
2022/07/18 11:31:07;;;;;;;;;;;;;;;34.49;25.08;102065.59;5202800;28;20022;-72
2022/07/18 11:33:46;;;;;;;8.07;2.67;;;;;;;33.85;25.23;102051.94;5201987;28;19956;-72
2022/07/18 11:36:27;;;;;;;3.75;1.73;;;;;;;33.86;25.25;102050.84;5189642;28;20908;-72
2022/07/18 11:39:03;;;;;;;3.83;1.52;;;;;;;34.09;24.59;102050.53;5201786;28;20392;-72
2022/07/18 11:41:37;;;;;;;3.92;1.85;;;;;;;34.07;25.40;102047.28;5200063;28;20042;-71
2022/07/18 11:44:17;;;;;;;6.65;1.63;;;;;;;34.38;24.90;102047.53;5200532;28;20029;-71
2022/07/18 11:46:59;;;;;;;3.58;1.58;;;;;;;34.11;24.49;102047.59;5201390;28;20029;-71
2022/07/18 11:49:31;;;;;;;4.35;1.60;;;;;;;33.89;24.21;102037.56;5199590;28;20229;-71
2022/07/18 11:52:03;;;;;;;;;;;;;;;34.94;24.21;102045.16;5200473;28;20034;-71
2022/07/18 11:54:34;;;;;;;7.25;1.70;;;;;;;34.30;23.61;102037.94;5202627;28;19917;-71